Time;durP1;ratioP1;P1;durP2;ratioP2;P2;SDS_P1;SDS_P2;PMS_P1;PMS_P2;Temp;Humidity;BMP_temperature;BMP_pressure;BME280_temperature;BME280_humidity;BME280_pressure;Samples;Min_cycle;Max_cycle;Signal;HPM_P1;HPM_P2
2022/04/26 04:24:26;;;;;;;17.73;13.18;;;;;;;6.77;100.00;100162.84;6639211;26;120543;-89
2022/04/26 04:27:31;;;;;;;16.92;13.00;;;;;;;6.91;100.00;100159.72;6596091;27;32449;-89
2022/04/26 04:30:33;;;;;;;20.58;12.68;;;;;;;6.94;100.00;100170.13;6616135;27;33859;-88
2022/04/26 04:33:37;;;;;;;17.08;12.23;;;;;;;7.24;100.00;100169.03;6597121;27;33517;-88
2022/04/26 04:36:40;;;;;;;16.25;12.07;;;;;;;7.25;100.00;100174.22;6615411;27;33922;-87
2022/04/26 04:39:43;;;;;;;16.85;12.15;;;;;;;8.63;97.38;100183.53;6595259;27;32271;-88
2022/04/26 04:42:46;;;;;;;14.77;10.95;;;;;;;8.99;92.93;100183.69;6594357;27;32765;-88
2022/04/26 04:45:49;;;;;;;14.35;11.15;;;;;;;10.72;82.48;100189.34;6614856;27;34386;-88
2022/04/26 04:48:52;;;;;;;18.12;11.40;;;;;;;9.75;87.60;100193.34;6626396;27;33624;-88
2022/04/26 04:51:55;;;;;;;13.50;11.35;;;;;;;9.19;90.65;100195.16;6616887;26;33970;-88
2022/04/26 04:54:58;;;;;;;15.10;12.10;;;;;;;8.71;93.15;100192.91;6614085;27;33823;-88
2022/04/26 04:58:01;;;;;;;14.65;10.40;;;;;;;8.50;95.43;100199.03;6614283;27;34037;-88
2022/04/26 05:01:03;;;;;;;11.52;8.38;;;;;;;8.80;95.34;100196.91;6613064;27;34197;-88
2022/04/26 05:04:06;;;;;;;13.07;10.57;;;;;;;9.33;93.76;100199.78;6613460;27;35213;-89
2022/04/26 05:07:09;;;;;;;11.05;8.43;;;;;;;10.56;83.92;100193.78;6599009;27;33612;-91
2022/04/26 05:10:13;;;;;;;10.02;8.10;;;;;;;11.45;80.07;100195.16;6595630;27;33401;-91
2022/04/26 05:13:15;;;;;;;10.77;9.52;;;;;;;11.66;78.16;100203.72;6614410;27;34496;-90
2022/04/26 05:16:18;;;;;;;11.57;8.00;;;;;;;11.23;78.24;100206.13;6614433;27;33869;-88
2022/04/26 05:19:21;;;;;;;11.38;9.27;;;;;;;12.53;74.36;100208.47;6614023;27;34010;-88
2022/04/26 05:22:24;;;;;;;9.85;7.03;;;;;;;14.07;67.51;100212.09;6613920;27;34251;-87
2022/04/26 05:25:26;;;;;;;9.18;8.15;;;;;;;14.87;62.58;100217.41;6589477;26;33080;-88
2022/04/26 05:28:44;;;;;;;10.48;8.88;;;;;;;15.63;60.24;100220.00;6586775;26;32776;-88
2022/04/26 05:31:47;;;;;;;9.88;8.63;;;;;;;15.47;60.72;100221.16;6556680;27;33564;-89
2022/04/26 05:38:19;;;;;;;9.77;8.75;;;;;;;15.87;57.94;100222.72;6559370;27;32155;-90
2022/04/26 06:27:10;;;;;;;7.82;7.10;;;;;;;19.06;47.84;100241.13;6616168;27;20079;-91
2022/04/26 06:37:52;;;;;;;8.82;7.10;;;;;;;18.34;48.39;100236.44;6515681;27;35231;-89
2022/04/26 06:40:55;;;;;;;7.93;7.22;;;;;;;16.94;52.36;100236.97;6585058;27;34027;-90
2022/04/26 06:43:57;;;;;;;7.95;7.18;;;;;;;17.01;52.09;100235.53;6564366;27;33999;-89
2022/04/26 06:47:00;;;;;;;7.65;6.95;;;;;;;16.18;55.00;100235.62;6567700;27;32398;-90
2022/04/26 06:50:03;;;;;;;12.35;6.65;;;;;;;16.14;54.35;100232.31;6570045;27;35072;-89
2022/04/26 06:53:08;;;;;;;7.28;6.60;;;;;;;18.85;48.56;100226.72;6578644;27;34857;-89
2022/04/26 07:03:40;;;;;;;6.10;5.57;;;;;;;18.43;49.33;100233.00;6604849;26;20072;-90
2022/04/26 07:10:22;;;;;;;5.32;4.85;;;;;;;19.34;45.37;100230.59;6537657;27;20072;-88
2022/04/26 07:16:55;;;;;;;6.28;4.12;;;;;;;20.67;41.14;100225.69;6610644;26;34803;-90
2022/04/26 07:20:01;;;;;;;6.65;4.30;;;;;;;20.06;42.18;100231.31;6592609;27;34855;-91
2022/04/26 07:23:07;;;;;;;6.28;3.58;;;;;;;20.53;41.67;100235.09;6589179;27;34443;-89
2022/04/26 07:26:10;;;;;;;7.45;3.60;;;;;;;20.96;41.05;100232.00;6588396;27;32866;-89
2022/04/26 07:29:15;;;;;;;4.28;3.40;;;;;;;20.77;39.44;100240.97;6611221;27;34355;-84
2022/04/26 07:32:19;;;;;;;6.78;3.40;;;;;;;20.58;41.76;100237.34;6613997;27;34081;-87
2022/04/26 07:35:24;;;;;;;5.85;3.28;;;;;;;20.82;39.16;100241.41;6593955;27;33956;-85
2022/04/26 07:38:27;;;;;;;7.65;3.30;;;;;;;20.81;38.54;100245.09;6591988;27;33222;-85
2022/04/26 07:41:32;;;;;;;4.57;3.53;;;;;;;20.71;40.12;100245.09;6593508;27;34684;-84
2022/04/26 07:44:36;;;;;;;3.65;3.30;;;;;;;20.43;40.72;100239.63;6589843;27;32423;-86
2022/04/26 07:47:39;;;;;;;4.30;3.00;;;;;;;20.73;39.81;100240.44;6606519;27;33867;-85
2022/04/26 07:50:44;;;;;;;8.30;2.97;;;;;;;21.07;37.55;100245.28;6607737;27;33921;-87
2022/04/26 07:53:47;;;;;;;9.07;3.28;;;;;;;20.99;38.60;100253.28;6607274;27;34772;-88
2022/04/26 07:56:50;;;;;;;3.00;2.70;;;;;;;21.77;37.51;100257.44;6607500;27;33989;-87
2022/04/26 07:59:53;;;;;;;3.67;2.60;;;;;;;22.29;36.13;100253.22;6586316;27;32650;-87
2022/04/26 08:02:56;;;;;;;4.03;2.67;;;;;;;22.65;35.47;100257.72;6586269;27;33191;-87
2022/04/26 08:05:59;;;;;;;3.65;2.50;;;;;;;23.00;34.43;100253.22;6606601;27;34242;-87
2022/04/26 08:09:02;;;;;;;2.12;2.00;;;;;;;23.13;34.14;100262.72;6588347;27;32259;-87
2022/04/26 08:12:10;;;;;;;3.65;2.10;;;;;;;23.28;34.13;100263.81;6586520;27;33714;-87
2022/04/26 08:15:14;;;;;;;1.98;1.77;;;;;;;23.30;32.25;100255.53;6608326;27;34111;-86
2022/04/26 08:18:18;;;;;;;2.17;1.98;;;;;;;23.21;31.20;100257.34;6600346;26;33650;-87
2022/04/26 08:21:22;;;;;;;5.12;2.40;;;;;;;23.04;31.43;100256.44;6579061;27;34099;-88
2022/04/26 08:27:46;;;;;;;6.12;2.40;;;;;;;23.04;33.80;100252.88;6579098;27;34054;-88
2022/04/26 08:30:50;;;;;;;3.87;1.98;;;;;;;23.09;33.71;100262.19;6579064;27;34180;-87
2022/04/26 08:33:59;;;;;;;4.72;2.08;;;;;;;23.70;31.73;100266.69;6578605;27;34323;-86
2022/04/26 08:37:02;;;;;;;3.53;2.08;;;;;;;23.27;30.94;100258.53;6577673;27;34351;-85
2022/04/26 08:40:07;;;;;;;7.53;2.20;;;;;;;23.61;31.01;100265.81;6578445;27;33382;-88
2022/04/26 08:43:12;;;;;;;4.07;1.98;;;;;;;23.42;31.28;100265.09;6577318;27;32877;-88
2022/04/26 08:46:14;;;;;;;2.20;1.80;;;;;;;23.77;31.60;100266.84;6578501;27;33922;-87
2022/04/26 08:52:47;;;;;;;1.98;1.85;;;;;;;24.67;29.63;100259.81;6576291;27;34032;-85
2022/04/26 08:55:53;;;;;;;2.67;1.65;;;;;;;24.49;28.77;100260.84;6576206;27;32730;-86
2022/04/26 08:58:56;;;;;;;5.00;1.85;;;;;;;24.18;30.31;100263.41;6578198;27;33033;-86
2022/04/26 09:02:15;;;;;;;2.78;1.73;;;;;;;24.75;31.13;100258.97;6578669;27;34558;-86
2022/04/26 09:05:19;;;;;;;2.05;1.85;;;;;;;24.79;29.87;100259.44;6580425;27;34590;-86
2022/04/26 09:08:23;;;;;;;3.35;1.83;;;;;;;24.85;27.98;100270.47;6580097;27;34468;-88
2022/04/26 09:11:32;;;;;;;2.60;1.70;;;;;;;24.13;29.95;100272.03;6581836;27;33915;-88
2022/04/26 09:14:47;;;;;;;2.37;1.33;;;;;;;24.12;30.21;100264.91;6579761;27;32929;-87
2022/04/26 09:17:49;;;;;;;2.30;1.50;;;;;;;24.91;29.46;100263.53;6580116;27;32629;-87
2022/04/26 09:21:09;;;;;;;2.45;1.52;;;;;;;24.53;27.62;100269.47;6589100;27;34673;-91
2022/04/26 09:24:14;;;;;;;3.17;1.60;;;;;;;24.22;28.14;100257.47;6586398;27;32785;-91
2022/04/26 09:27:17;;;;;;;2.25;1.40;;;;;;;25.43;26.47;100264.84;6591610;27;33635;-91
2022/04/26 09:30:20;;;;;;;1.75;1.65;;;;;;;25.54;25.67;100262.81;6586140;27;33985;-88
2022/04/26 09:33:30;;;;;;;1.25;1.20;;;;;;;25.55;25.71;100261.78;6580496;27;34202;-87
2022/04/26 09:36:46;;;;;;;1.77;1.30;;;;;;;25.35;25.11;100256.75;6579844;27;34320;-86
2022/04/26 09:40:05;;;;;;;2.65;1.30;;;;;;;25.06;25.24;100260.06;6584262;27;34583;-86
2022/04/26 09:43:14;;;;;;;4.37;1.15;;;;;;;25.70;24.47;100265.41;6584606;27;34514;-86
2022/04/26 09:46:17;;;;;;;4.28;1.87;;;;;;;26.96;23.10;100266.12;6582389;27;33162;-86
2022/04/26 09:49:23;;;;;;;2.58;1.12;;;;;;;25.37;24.12;100262.00;6583977;27;34002;-84
2022/04/26 09:52:26;;;;;;;3.17;1.70;;;;;;;27.25;22.00;100264.41;6584470;27;33163;-85
2022/04/26 09:55:29;;;;;;;2.75;1.20;;;;;;;26.83;22.45;100250.41;6583387;27;33988;-86
2022/04/26 09:58:34;;;;;;;2.80;1.50;;;;;;;27.21;20.79;100254.09;6597530;27;34192;-86
2022/04/26 10:01:47;;;;;;;1.30;1.20;;;;;;;29.69;19.75;100248.16;6595265;27;33015;-89
2022/04/26 10:04:58;;;;;;;3.92;1.20;;;;;;;29.19;18.70;100250.06;6587314;27;34856;-87
2022/04/26 10:08:04;;;;;;;2.92;1.27;;;;;;;26.94;22.41;100240.97;6583118;27;32972;-89
2022/04/26 10:11:07;;;;;;;2.28;1.52;;;;;;;26.94;20.96;100240.97;6581165;27;34097;-88
2022/04/26 10:14:12;;;;;;;1.45;1.40;;;;;;;26.22;21.57;100245.88;6579062;27;32473;-85
2022/04/26 10:17:19;;;;;;;1.70;1.45;;;;;;;25.13;23.06;100234.78;6581298;26;33366;-87
2022/04/26 10:20:41;;;;;;;2.05;1.10;;;;;;;25.45;22.64;100240.25;6582328;27;32617;-86
2022/04/26 10:23:50;;;;;;;1.85;1.60;;;;;;;26.98;21.78;100234.13;6586148;27;32948;-84
2022/04/26 10:26:53;;;;;;;2.30;1.48;;;;;;;26.79;22.27;100230.03;6583171;27;33149;-87
2022/04/26 10:29:56;;;;;;;2.15;1.33;;;;;;;27.89;20.54;100232.06;6584486;27;34337;-89
2022/04/26 10:32:59;;;;;;;1.62;1.50;;;;;;;26.17;22.59;100235.56;6582063;27;32205;-89
2022/04/26 10:36:20;;;;;;;1.30;1.20;;;;;;;25.68;21.51;100234.88;6580504;27;34485;-89
2022/04/26 10:39:25;;;;;;;1.55;1.45;;;;;;;27.81;21.64;100230.28;6579787;27;32708;-86
2022/04/26 10:42:31;;;;;;;1.85;1.75;;;;;;;30.37;16.00;100227.22;6578917;27;34656;-87
2022/04/26 10:45:33;;;;;;;2.35;1.85;;;;;;;30.15;16.75;100226.59;6578951;27;33593;-87
2022/04/26 10:48:36;;;;;;;2.30;1.80;;;;;;;28.72;19.78;100230.69;6579374;27;33878;-88
2022/04/26 10:51:39;;;;;;;1.87;1.77;;;;;;;27.26;21.10;100224.44;6579821;27;34640;-85
2022/04/26 10:54:45;;;;;;;4.00;1.95;;;;;;;26.15;20.64;100223.16;6581227;27;33743;-88
2022/04/26 10:57:50;;;;;;;2.22;1.60;;;;;;;24.99;23.11;100220.09;6578474;27;32821;-88
2022/04/26 11:00:53;;;;;;;1.80;1.70;;;;;;;25.41;24.20;100222.63;6579388;27;34125;-88
2022/04/26 11:03:57;;;;;;;3.67;2.25;;;;;;;24.89;25.00;100214.84;6580155;27;34174;-89
2022/04/26 11:07:10;;;;;;;1.90;1.80;;;;;;;24.65;25.90;100218.47;6578133;27;32894;-88
2022/04/26 11:10:18;;;;;;;2.17;2.00;;;;;;;24.48;25.63;100223.91;6579425;27;33855;-88
2022/04/26 11:13:30;;;;;;;4.15;1.95;;;;;;;25.33;24.27;100218.06;6583870;27;32771;-88
2022/04/26 11:16:32;;;;;;;2.62;1.70;;;;;;;24.75;24.89;100216.37;6582067;27;32291;-88
2022/04/26 11:19:38;;;;;;;4.20;1.92;;;;;;;24.12;26.34;100209.91;6580769;27;33272;-90
2022/04/26 11:22:48;;;;;;;2.53;2.33;;;;;;;22.81;29.32;100216.41;6582752;27;34530;-90
2022/04/26 11:29:24;;;;;;;2.60;2.15;;;;;;;22.98;29.59;100213.81;6580383;27;34242;-87
2022/04/26 11:32:38;;;;;;;2.60;2.40;;;;;;;23.81;28.69;100214.94;6583506;27;34054;-88
2022/04/26 11:35:42;;;;;;;2.62;2.42;;;;;;;23.44;29.23;100221.62;6579849;27;33777;-92
2022/04/26 11:38:57;;;;;;;2.67;2.47;;;;;;;22.91;29.68;100210.88;6579361;27;33518;-92
2022/04/26 11:42:00;;;;;;;2.60;2.40;;;;;;;21.64;31.63;100220.00;6578988;27;32965;-87
2022/04/26 11:45:05;;;;;;;2.70;2.50;;;;;;;22.24;31.46;100211.44;6579201;27;32837;-90
2022/04/26 11:48:10;;;;;;;2.97;2.60;;;;;;;21.36;32.63;100208.38;6578629;27;32577;-89
2022/04/26 11:51:13;;;;;;;3.00;2.80;;;;;;;21.76;32.32;100212.56;6580579;27;34323;-89
2022/04/26 11:54:38;;;;;;;2.78;2.58;;;;;;;20.53;34.27;100207.28;6583140;27;32584;-90
2022/04/26 11:57:40;;;;;;;3.30;2.90;;;;;;;20.60;34.65;100203.00;6587797;27;34042;-89
2022/04/26 12:01:16;;;;;;;5.75;2.60;;;;;;;20.10;35.07;100196.03;6579581;27;33984;-88
2022/04/26 12:04:19;;;;;;;2.65;2.45;;;;;;;20.53;35.14;100204.59;6578478;27;32384;-88
2022/04/26 12:07:23;;;;;;;2.78;2.58;;;;;;;20.49;35.92;100195.09;6580046;27;33966;-88
2022/04/26 12:10:33;;;;;;;3.47;2.80;;;;;;;20.93;35.20;100199.94;6577683;27;32473;-88
2022/04/26 12:13:36;;;;;;;2.80;2.60;;;;;;;19.98;36.15;100200.69;6578466;27;34360;-89
2022/04/26 12:16:43;;;;;;;3.67;2.75;;;;;;;20.62;36.95;100197.47;6579405;27;33984;-89
2022/04/26 12:19:50;;;;;;;3.28;2.97;;;;;;;20.57;36.50;100196.06;6600333;27;34311;-89
2022/04/26 12:22:53;;;;;;;2.62;2.42;;;;;;;20.55;35.69;100199.91;6606226;27;33999;-89
2022/04/26 12:26:01;;;;;;;2.90;2.60;;;;;;;20.26;38.26;100190.06;6605808;27;34521;-89
2022/04/26 12:29:13;;;;;;;2.87;2.50;;;;;;;20.78;37.19;100191.47;6590159;27;34337;-90
2022/04/26 12:32:20;;;;;;;3.20;2.90;;;;;;;21.41;35.91;100181.78;6599399;26;34538;-89
2022/04/26 12:35:24;;;;;;;3.28;2.97;;;;;;;21.46;35.43;100189.47;6607444;27;34475;-89
2022/04/26 12:38:44;;;;;;;5.53;2.90;;;;;;;20.63;36.21;100185.69;6589376;27;33828;-93
2022/04/26 12:41:49;;;;;;;5.37;2.90;;;;;;;19.73;37.64;100176.88;6587338;27;32515;-89
2022/04/26 12:44:56;;;;;;;3.35;2.83;;;;;;;20.25;37.13;100169.47;6593802;26;34041;-89
2022/04/26 12:51:33;;;;;;;4.30;3.20;;;;;;;19.05;39.17;100169.56;6607119;27;33772;-89
2022/04/26 12:54:37;;;;;;;3.15;2.83;;;;;;;19.63;38.77;100166.13;6588182;27;34037;-90
2022/04/26 12:57:47;;;;;;;3.50;3.20;;;;;;;20.19;37.93;100163.69;6608122;27;34630;-90
2022/04/26 13:00:50;;;;;;;6.78;2.85;;;;;;;19.77;37.75;100164.00;6593337;27;32588;-89
2022/04/26 13:03:53;;;;;;;3.53;3.10;;;;;;;19.75;38.05;100158.75;6596357;27;33567;-89
2022/04/26 13:06:56;;;;;;;5.65;3.58;;;;;;;19.93;38.32;100166.94;6607873;27;33871;-89
2022/04/26 13:10:09;;;;;;;3.50;2.85;;;;;;;19.36;39.08;100158.72;6610276;27;34098;-89
2022/04/26 13:13:13;;;;;;;4.68;3.08;;;;;;;19.31;39.55;100167.19;6588459;27;32286;-90
2022/04/26 13:16:19;;;;;;;3.95;3.22;;;;;;;19.99;37.51;100156.63;6609611;27;34088;-90
2022/04/26 13:19:22;;;;;;;4.22;3.30;;;;;;;19.73;37.25;100158.03;6612808;27;33948;-90
2022/04/26 13:22:25;;;;;;;3.35;3.05;;;;;;;19.45;38.45;100155.19;6600030;26;33115;-90
2022/04/26 13:25:28;;;;;;;3.15;2.83;;;;;;;19.93;37.76;100152.66;6606486;27;33524;-90
2022/04/26 13:28:31;;;;;;;2.67;2.42;;;;;;;19.77;38.36;100156.75;6599115;27;34030;-89
2022/04/26 13:31:34;;;;;;;3.80;3.35;;;;;;;19.66;39.01;100155.06;6607374;27;34315;-89
2022/04/26 13:34:46;;;;;;;2.90;2.60;;;;;;;19.18;39.97;100163.91;6607311;27;35300;-89
2022/04/26 13:37:50;;;;;;;3.58;3.15;;;;;;;19.32;40.35;100160.84;6587460;27;33171;-89
2022/04/26 13:40:54;;;;;;;7.95;3.00;;;;;;;19.38;41.16;100162.13;6607416;27;33964;-89
2022/04/26 13:43:57;;;;;;;3.45;3.15;;;;;;;19.27;41.40;100163.09;6607185;26;33775;-91
2022/04/26 13:47:02;;;;;;;4.05;3.30;;;;;;;19.11;40.92;100164.47;6608649;26;34635;-89
2022/04/26 13:50:07;;;;;;;3.60;3.12;;;;;;;19.10;41.00;100151.16;6587781;27;32474;-89
2022/04/26 13:53:10;;;;;;;4.87;3.10;;;;;;;19.28;40.78;100150.47;6607390;27;35325;-92
2022/04/26 13:56:13;;;;;;;3.92;3.40;;;;;;;18.90;41.41;100151.06;6607768;27;34124;-92
2022/04/26 13:59:16;;;;;;;7.32;3.25;;;;;;;18.70;40.85;100148.31;6589199;27;33221;-92
2022/04/26 14:02:19;;;;;;;3.42;3.10;;;;;;;18.84;41.67;100148.91;6588599;27;32876;-92
2022/04/26 14:05:23;;;;;;;12.32;3.10;;;;;;;18.74;42.11;100150.75;6608594;27;34722;-89
2022/04/26 14:08:27;;;;;;;3.83;3.20;;;;;;;18.72;42.72;100153.56;6608372;27;34843;-88
2022/04/26 14:11:31;;;;;;;3.62;3.22;;;;;;;18.82;42.38;100153.59;6587946;27;34040;-88
2022/04/26 14:24:43;;;;;;;4.25;3.17;;;;;;;19.19;41.64;100147.66;6607435;27;34639;-88
2022/04/26 14:27:49;;;;;;;4.82;3.08;;;;;;;18.91;42.05;100149.25;6606597;27;34818;-88
2022/04/26 14:30:52;;;;;;;3.08;2.78;;;;;;;19.19;41.56;100152.16;6607804;27;33883;-88
2022/04/26 14:33:54;;;;;;;7.12;2.58;;;;;;;19.41;41.50;100155.59;6588421;27;33376;-88
2022/04/26 14:36:58;;;;;;;3.85;2.90;;;;;;;19.41;40.90;100159.13;6607590;27;34092;-88
2022/04/26 14:40:03;;;;;;;3.55;3.25;;;;;;;18.66;41.96;100149.56;6587267;27;32740;-89
2022/04/26 14:43:09;;;;;;;3.20;2.90;;;;;;;18.62;42.02;100149.97;6609239;27;35416;-88
2022/04/26 14:46:12;;;;;;;3.12;2.85;;;;;;;18.72;42.54;100151.69;6607301;27;33981;-89
2022/04/26 14:49:15;;;;;;;4.87;3.00;;;;;;;18.74;42.25;100151.56;6588033;27;32561;-88
2022/04/26 14:52:21;;;;;;;4.15;2.72;;;;;;;18.63;43.20;100146.28;6606433;27;34517;-87
2022/04/26 14:55:38;;;;;;;4.47;3.10;;;;;;;18.66;42.53;100144.19;6607568;27;34380;-88
2022/04/26 14:58:41;;;;;;;4.75;2.75;;;;;;;18.86;42.38;100150.47;6608075;27;34099;-88
2022/04/26 15:01:46;;;;;;;4.65;3.00;;;;;;;19.12;42.13;100147.34;6608541;27;33680;-87
2022/04/26 15:04:49;;;;;;;3.12;2.80;;;;;;;19.20;41.50;100148.47;6607331;27;33915;-88
2022/04/26 15:11:34;;;;;;;3.40;3.10;;;;;;;19.03;41.86;100136.56;6607425;27;34431;-88
2022/04/26 15:17:59;;;;;;;3.12;2.83;;;;;;;18.95;42.19;100137.22;6609102;27;33567;-88
2022/04/26 15:21:02;;;;;;;4.22;3.25;;;;;;;19.25;41.82;100140.84;6589864;27;32362;-88
2022/04/26 15:24:05;;;;;;;4.72;3.10;;;;;;;19.05;41.71;100135.44;6588561;27;33277;-88
2022/04/26 15:27:08;;;;;;;4.12;3.22;;;;;;;19.16;41.32;100139.00;6587994;27;33829;-88
